Time;durP1;ratioP1;P1;durP2;ratioP2;P2;SDS_P1;SDS_P2;PMS_P1;PMS_P2;Temp;Humidity;BMP_temperature;BMP_pressure;BME280_temperature;BME280_humidity;BME280_pressure;Samples;Min_cycle;Max_cycle;Signal;HPM_P1;HPM_P2
2023/06/29 00:00:59;;;;;;;;;;;;;;;;;;4998816;28;19918;-75
2023/06/29 00:03:46;;;;;;;;;;;;;;;;;;5002557;28;19917;-74
2023/06/29 00:06:36;;;;;;;;;;;;;;;;;;5005404;28;19926;-74
2023/06/29 00:09:23;;;;;;;;;;;;;;;;;;4997047;28;20440;-74
2023/06/29 00:12:09;;;;;;;;;;;;;;;;;;5005935;28;19918;-74
2023/06/29 00:14:55;;;;;;;;;;;;;;;;;;5007786;28;19917;-75
2023/06/29 00:17:47;;;;;;;;;;;;;;;;;;5006753;28;19921;-74
2023/06/29 00:20:34;;;;;;;;;;;;;;;;;;5007153;28;20344;-74
2023/06/29 00:23:20;;;;;;;;;;;;;;;;;;4999738;28;20497;-74
2023/06/29 00:26:07;;;;;;;;;;;;;;;;;;5000996;28;19924;-74
2023/06/29 00:28:53;;;;;;;;;;;;;;;;;;4979958;28;19922;-74
2023/06/29 00:31:40;;;;;;;;;;;;;;;;;;4984552;28;20650;-74
2023/06/29 00:34:26;;;;;;;;;;;;;;;;;;4984590;28;19929;-74
2023/06/29 00:37:13;;;;;;;;;;;;;;;;;;4985383;28;20474;-74
2023/06/29 00:39:59;;;;;;;;;;;;;;;;;;4977065;28;19925;-75
2023/06/29 00:42:46;;;;;;;;;;;;;;;;;;4981598;28;19924;-74
2023/06/29 00:45:32;;;;;;;;;;;;;;;;;;4984607;28;19987;-73
2023/06/29 00:48:18;;;;;;;;;;;;;;;;;;4985573;28;19925;-74
2023/06/29 00:51:05;;;;;;;;;;;;;;;;;;4976417;28;19923;-74
2023/06/29 00:53:51;;;;;;;;;;;;;;;;;;4979833;28;19925;-74
2023/06/29 00:56:38;;;;;;;;;;;;;;;;;;4990149;28;19932;-74
2023/06/29 00:59:24;;;;;;;;;;;;;;;;;;4970561;28;19918;-73
2023/06/29 01:02:11;;;;;;;;;;;;;;;;;;4985206;28;19920;-74
2023/06/29 01:04:57;;;;;;;;;;;;;;;;;;4988372;28;19929;-74
2023/06/29 01:07:44;;;;;;;;;;;;;;;;;;4995331;28;19990;-74
2023/06/29 01:10:30;;;;;;;;;;;;;;;;;;4984535;28;19945;-73
2023/06/29 01:13:17;;;;;;;;;;;;;;;;;;4985838;28;19918;-74
2023/06/29 01:16:03;;;;;;;;;;;;;;;;;;5002774;28;19924;-74
2023/06/29 01:18:51;;;;;;;;;;;;;;;;;;4988685;28;20270;-73
2023/06/29 01:21:37;;;;;;;;;;;;;;;;;;4991911;28;19922;-74
2023/06/29 01:24:24;;;;;;;;;;;;;;;;;;4996043;28;19925;-74
2023/06/29 01:27:14;;;;;;;;;;;;;;;;;;4989399;28;19932;-73
2023/06/29 01:30:01;;;;;;;;;;;;;;;;;;5003934;28;19921;-74
2023/06/29 01:32:47;;;;;;;;;;;;;;;;;;5003085;28;19926;-73
2023/06/29 01:35:33;;;;;;;;;;;;;;;;;;5006493;28;20275;-73
2023/06/29 01:38:20;;;;;;;;;;;;;;;;;;5003109;28;20336;-74
2023/06/29 01:41:07;;;;;;;;;;;;;;;;;;5004208;28;19933;-73
2023/06/29 01:43:53;;;;;;;;;;;;;;;;;;5005105;28;20286;-73
2023/06/29 01:46:40;;;;;;;;;;;;;;;;;;4992739;28;19930;-73
2023/06/29 01:49:26;;;;;;;;;;;;;;;;;;5003593;28;20004;-74
2023/06/29 01:52:13;;;;;;;;;;;;;;;;;;5001158;28;19914;-74
2023/06/29 01:54:59;;;;;;;;;;;;;;;;;;5002222;28;19939;-74
2023/06/29 01:57:46;;;;;;;;;;;;;;;;;;4998044;28;20300;-73
2023/06/29 02:00:32;;;;;;;;;;;;;;;;;;4997864;28;19918;-74
2023/06/29 02:03:19;;;;;;;;;;;;;;;;;;5001995;28;19932;-74
2023/06/29 02:06:05;;;;;;;;;;;;;;;;;;5003053;28;20479;-74
2023/06/29 02:08:52;;;;;;;;;;;;;;;;;;4999543;28;20389;-74
2023/06/29 02:11:38;;;;;;;;;;;;;;;;;;5001624;28;19928;-74
2023/06/29 02:14:25;;;;;;;;;;;;;;;;;;5003808;28;19918;-74
2023/06/29 02:17:11;;;;;;;;;;;;;;;;;;5005553;28;19921;-73
2023/06/29 02:19:58;;;;;;;;;;;;;;;;;;4990304;28;19922;-74
2023/06/29 02:22:44;;;;;;;;;;;;;;;;;;5004965;28;19925;-73
2023/06/29 02:25:31;;;;;;;;;;;;;;;;;;5003613;28;19923;-74
2023/06/29 02:28:17;;;;;;;;;;;;;;;;;;4994675;28;19941;-74
2023/06/29 02:31:04;;;;;;;;;;;;;;;;;;5004446;28;19918;-74
2023/06/29 02:33:50;;;;;;;;;;;;;;;;;;5002437;28;19926;-74
2023/06/29 02:36:37;;;;;;;;;;;;;;;;;;4999821;28;19918;-73
2023/06/29 02:39:23;;;;;;;;;;;;;;;;;;5002849;28;20329;-73
2023/06/29 02:42:10;;;;;;;;;;;;;;;;;;4995220;28;20304;-74
2023/06/29 02:44:56;;;;;;;;;;;;;;;;;;5003727;28;19920;-73
2023/06/29 02:47:43;;;;;;;;;;;;;;;;;;5004688;28;19926;-73
2023/06/29 02:50:29;;;;;;;;;;;;;;;;;;4998987;28;20025;-73
2023/06/29 02:53:16;;;;;;;;;;;;;;;;;;5001483;28;19921;-73
2023/06/29 02:56:02;;;;;;;;;;;;;;;;;;4994403;28;19960;-73
2023/06/29 02:58:49;;;;;;;;;;;;;;;;;;5003627;28;20436;-72
2023/06/29 03:01:35;;;;;;;;;;;;;;;;;;5003093;28;19921;-73
2023/06/29 03:04:22;;;;;;;;;;;;;;;;;;5001324;28;20305;-73
2023/06/29 03:07:09;;;;;;;;;;;;;;;;;;4991360;28;19932;-74
2023/06/29 03:09:55;;;;;;;;;;;;;;;;;;5004930;28;19948;-72
2023/06/29 03:12:42;;;;;;;;;;;;;;;;;;5000948;28;19921;-73
2023/06/29 03:15:28;;;;;;;;;;;;;;;;;;4992502;28;19917;-73
2023/06/29 03:18:14;;;;;;;;;;;;;;;;;;4999620;28;19922;-73
2023/06/29 03:21:01;;;;;;;;;;;;;;;;;;4997748;28;20356;-74
2023/06/29 03:23:49;;;;;;;;;;;;;;;;;;4979673;28;19933;-74
2023/06/29 03:26:35;;;;;;;;;;;;;;;;;;4998327;28;19963;-74
2023/06/29 03:29:22;;;;;;;;;;;;;;;;;;5002398;28;20293;-74
2023/06/29 03:32:09;;;;;;;;;;;;;;;;;;4995258;28;19925;-74
2023/06/29 03:34:55;;;;;;;;;;;;;;;;;;5007993;28;19940;-74
2023/06/29 03:37:41;;;;;;;;;;;;;;;;;;5004799;28;20384;-74
2023/06/29 03:40:28;;;;;;;;;;;;;;;;;;5005342;28;19918;-73
2023/06/29 03:43:14;;;;;;;;;;;;;;;;;;5000785;28;20340;-73
2023/06/29 03:46:01;;;;;;;;;;;;;;;;;;5006119;28;19922;-74
2023/06/29 03:48:47;;;;;;;;;;;;;;;;;;5005733;28;20286;-73
2023/06/29 03:51:34;;;;;;;;;;;;;;;;;;5012771;28;19918;-73
2023/06/29 03:54:20;;;;;;;;;;;;;;;;;;5007973;28;19917;-73
2023/06/29 03:57:07;;;;;;;;;;;;;;;;;;4999031;28;20286;-73
2023/06/29 03:59:53;;;;;;;;;;;;;;;;;;5005058;28;19937;-73
2023/06/29 04:02:40;;;;;;;;;;;;;;;;;;5005286;28;20292;-74
2023/06/29 04:05:27;;;;;;;;;;;;;;;;;;5000507;28;19922;-73
2023/06/29 04:08:13;;;;;;;;;;;;;;;;;;5000053;28;20287;-74
2023/06/29 04:11:00;;;;;;;;;;;;;;;;;;4999454;28;19918;-74
2023/06/29 04:13:46;;;;;;;;;;;;;;;;;;5002538;28;19928;-73
2023/06/29 04:16:33;;;;;;;;;;;;;;;;;;4998444;28;20401;-73
2023/06/29 04:19:19;;;;;;;;;;;;;;;;;;5002238;28;19929;-73
2023/06/29 04:22:06;;;;;;;;;;;;;;;;;;5002913;28;19917;-74
2023/06/29 04:24:52;;;;;;;;;;;;;;;;;;5000227;28;19928;-73
2023/06/29 04:27:39;;;;;;;;;;;;;;;;;;4993867;28;20293;-74
2023/06/29 04:30:25;;;;;;;;;;;;;;;;;;5005687;28;19914;-73
2023/06/29 04:33:14;;;;;;;;;;;;;;;;;;4998115;28;20279;-73
2023/06/29 04:36:01;;;;;;;;;;;;;;;;;;4998925;28;19913;-74
2023/06/29 04:38:47;;;;;;;;;;;;;;;;;;5004815;28;19918;-73
2023/06/29 04:41:34;;;;;;;;;;;;;;;;;;5001771;28;19917;-73
2023/06/29 04:44:21;;;;;;;;;;;;;;;;;;5007357;28;19921;-73
2023/06/29 04:47:07;;;;;;;;;;;;;;;;;;4993300;28;19922;-73
2023/06/29 04:49:56;;;;;;;;;;;;;;;;;;5002239;28;19931;-74
2023/06/29 04:52:43;;;;;;;;;;;;;;;;;;5006974;28;20574;-73
2023/06/29 04:55:30;;;;;;;;;;;;;;;;;;5004904;28;19921;-74
2023/06/29 04:58:16;;;;;;;;;;;;;;;;;;4997584;28;19925;-74
2023/06/29 05:01:03;;;;;;;;;;;;;;;;;;4993485;28;19918;-75
2023/06/29 05:03:49;;;;;;;;;;;;;;;;;;5003296;28;20036;-74
2023/06/29 05:06:37;;;;;;;;;;;;;;;;;;5005572;28;19921;-74
2023/06/29 05:09:24;;;;;;;;;;;;;;;;;;5006733;28;19976;-74
2023/06/29 05:12:11;;;;;;;;;;;;;;;;;;5004002;28;20363;-72
2023/06/29 05:14:57;;;;;;;;;;;;;;;;;;5005626;28;19921;-76
2023/06/29 05:17:44;;;;;;;;;;;;;;;;;;5006328;28;19917;-73
2023/06/29 05:20:30;;;;;;;;;;;;;;;;;;5003372;28;20266;-74
2023/06/29 05:23:17;;;;;;;;;;;;;;;;;;5005332;28;26086;-74
2023/06/29 05:26:03;;;;;;;;;;;;;;;;;;4997063;28;20281;-74
2023/06/29 05:28:50;;;;;;;;;;;;;;;;;;5000318;28;19953;-74
2023/06/29 05:31:36;;;;;;;;;;;;;;;;;;4999675;28;19947;-73
2023/06/29 05:34:22;;;;;;;;;;;;;;;;;;5000453;28;19921;-73
2023/06/29 05:37:09;;;;;;;;;;;;;;;;;;5003477;28;19940;-74
2023/06/29 05:39:56;;;;;;;;;;;;;;;;;;5003082;28;19922;-74
2023/06/29 05:42:43;;;;;;;;;;;;;;;;;;5002515;28;19926;-74
2023/06/29 05:45:29;;;;;;;;;;;;;;;;;;4991599;28;20367;-74
2023/06/29 05:48:16;;;;;;;;;;;;;;;;;;5002751;28;19930;-74
2023/06/29 05:51:02;;;;;;;;;;;;;;;;;;5005027;28;19924;-74
2023/06/29 05:53:49;;;;;;;;;;;;;;;;;;5004286;28;20221;-74
2023/06/29 05:56:35;;;;;;;;;;;;;;;;;;5005053;28;19924;-74
2023/06/29 05:59:22;;;;;;;;;;;;;;;;;;4994535;28;19929;-74
2023/06/29 06:02:08;;;;;;;;;;;;;;;;;;4989425;28;19917;-74
2023/06/29 06:04:55;;;;;;;;;;;;;;;;;;5004869;28;19918;-74
2023/06/29 06:07:42;;;;;;;;;;;;;;;;;;5001438;28;19921;-74
2023/06/29 06:10:28;;;;;;;;;;;;;;;;;;5003648;28;20400;-74
2023/06/29 06:13:15;;;;;;;;;;;;;;;;;;5001077;28;19921;-74
2023/06/29 06:16:01;;;;;;;;;;;;;;;;;;5005200;28;19924;-73
2023/06/29 06:18:48;;;;;;;;;;;;;;;;;;5003172;28;19926;-73
2023/06/29 06:21:34;;;;;;;;;;;;;;;;;;5002086;28;19918;-73
2023/06/29 06:24:21;;;;;;;;;;;;;;;;;;5003929;28;19918;-73
2023/06/29 06:27:07;;;;;;;;;;;;;;;;;;5001029;28;19941;-74
2023/06/29 06:29:54;;;;;;;;;;;;;;;;;;4999926;28;19918;-74
2023/06/29 06:32:41;;;;;;;;;;;;;;;;;;5002817;28;20287;-73
2023/06/29 06:35:31;;;;;;;;;;;;;;;;;;4997953;28;19918;-74
2023/06/29 06:38:18;;;;;;;;;;;;;;;;;;5005284;28;19925;-73
2023/06/29 06:41:04;;;;;;;;;;;;;;;;;;5006010;28;19951;-73
2023/06/29 06:43:51;;;;;;;;;;;;;;;;;;4997225;28;20274;-74
2023/06/29 06:46:37;;;;;;;;;;;;;;;;;;5000701;28;20407;-74
2023/06/29 06:49:24;;;;;;;;;;;;;;;;;;5002612;28;20520;-73
2023/06/29 06:52:10;;;;;;;;;;;;;;;;;;5005053;28;19923;-73
2023/06/29 06:54:57;;;;;;;;;;;;;;;;;;4995965;28;19917;-78
2023/06/29 06:57:43;;;;;;;;;;;;;;;;;;4999543;28;19917;-73
2023/06/29 07:00:30;;;;;;;;;;;;;;;;;;4999268;28;19929;-74
2023/06/29 07:03:18;;;;;;;;;;;;;;;;;;4996870;28;19925;-74
2023/06/29 07:06:05;;;;;;;;;;;;;;;;;;5001722;28;20412;-74
2023/06/29 07:08:51;;;;;;;;;;;;;;;;;;5002732;28;20656;-74
2023/06/29 07:11:38;;;;;;;;;;;;;;;;;;5003555;28;19934;-74
2023/06/29 07:14:24;;;;;;;;;;;;;;;;;;5002594;28;19932;-74
2023/06/29 07:17:11;;;;;;;;;;;;;;;;;;5002492;28;20258;-73
2023/06/29 07:19:57;;;;;;;;;;;;;;;;;;5002674;28;19917;-77
2023/06/29 07:22:44;;;;;;;;;;;;;;;;;;5006767;28;19917;-73
2023/06/29 07:25:30;;;;;;;;;;;;;;;;;;4992153;28;19921;-74
2023/06/29 07:28:17;;;;;;;;;;;;;;;;;;5003772;28;19937;-74
2023/06/29 07:31:04;;;;;;;;;;;;;;;;;;5002758;28;19922;-74
2023/06/29 07:33:51;;;;;;;;;;;;;;;;;;5004355;28;19918;-73
2023/06/29 07:36:37;;;;;;;;;;;;;;;;;;5001462;28;19921;-74
2023/06/29 07:39:24;;;;;;;;;;;;;;;;;;4994104;28;19924;-74
2023/06/29 07:42:10;;;;;;;;;;;;;;;;;;5003236;28;19944;-73
2023/06/29 07:44:57;;;;;;;;;;;;;;;;;;5000961;28;19937;-73
2023/06/29 07:47:43;;;;;;;;;;;;;;;;;;4996830;28;19926;-73
2023/06/29 07:50:30;;;;;;;;;;;;;;;;;;5001809;28;19922;-74
2023/06/29 07:53:16;;;;;;;;;;;;;;;;;;4995293;28;19920;-74
2023/06/29 07:56:03;;;;;;;;;;;;;;;;;;5004337;28;20289;-74
2023/06/29 07:58:49;;;;;;;;;;;;;;;;;;5000979;28;19921;-74
2023/06/29 08:01:38;;;;;;;;;;;;;;;;;;5002813;28;19932;-74
2023/06/29 08:04:25;;;;;;;;;;;;;;;;;;4993854;28;20408;-73
2023/06/29 08:07:12;;;;;;;;;;;;;;;;;;5001050;28;19914;-73
2023/06/29 08:09:59;;;;;;;;;;;;;;;;;;5004443;28;19933;-74
2023/06/29 08:12:45;;;;;;;;;;;;;;;;;;5000946;28;19918;-73
2023/06/29 08:15:32;;;;;;;;;;;;;;;;;;4997233;28;19932;-73
2023/06/29 08:18:18;;;;;;;;;;;;;;;;;;5004385;28;19917;-73
2023/06/29 08:21:05;;;;;;;;;;;;;;;;;;4998555;28;19929;-75
2023/06/29 08:23:51;;;;;;;;;;;;;;;;;;5006623;28;19925;-74
2023/06/29 08:26:38;;;;;;;;;;;;;;;;;;5001953;28;19944;-74
2023/06/29 08:29:24;;;;;;;;;;;;;;;;;;4979501;28;19936;-73
2023/06/29 08:32:11;;;;;;;;;;;;;;;;;;4988811;28;19925;-73
2023/06/29 08:34:57;;;;;;;;;;;;;;;;;;4984746;28;19929;-77
2023/06/29 08:37:44;;;;;;;;;;;;;;;;;;4979016;28;20294;-74
2023/06/29 08:40:30;;;;;;;;;;;;;;;;;;4980624;28;19924;-75
2023/06/29 08:43:24;;;;;;;;;;;;;;;;;;4952081;28;19921;-75
2023/06/29 08:46:10;;;;;;;;;;;;;;;;;;4973848;28;19913;-72
2023/06/29 08:48:57;;;;;;;;;;;;;;;;;;4980848;28;19933;-73
2023/06/29 08:51:43;;;;;;;;;;;;;;;;;;4987100;28;19972;-73
2023/06/29 08:54:35;;;;;;;;;;;;;;;;;;4986564;28;19918;-74
2023/06/29 08:57:21;;;;;;;;;;;;;;;;;;4984807;28;19917;-74
2023/06/29 09:00:08;;;;;;;;;;;;;;;;;;4986280;28;20349;-74
2023/06/29 09:02:55;;;;;;;;;;;;;;;;;;4978418;28;19936;-74
2023/06/29 09:05:41;;;;;;;;;;;;;;;;;;4985892;28;19944;-73
2023/06/29 09:08:28;;;;;;;;;;;;;;;;;;4994434;28;19932;-73
2023/06/29 09:11:15;;;;;;;;;;;;;;;;;;4985970;28;20004;-73
2023/06/29 09:14:02;;;;;;;;;;;;;;;;;;4986143;28;19925;-73
2023/06/29 09:16:49;;;;;;;;;;;;;;;;;;4986190;28;19929;-73
2023/06/29 09:19:36;;;;;;;;;;;;;;;;;;4977523;28;19921;-74
2023/06/29 09:22:22;;;;;;;;;;;;;;;;;;4985737;28;19914;-74
2023/06/29 09:25:10;;;;;;;;;;;;;;;;;;4985895;28;20427;-74
2023/06/29 09:27:56;;;;;;;;;;;;;;;;;;4991563;28;20333;-74
2023/06/29 09:30:42;;;;;;;;;;;;;;;;;;5000697;28;19914;-74
2023/06/29 09:33:29;;;;;;;;;;;;;;;;;;4992817;28;19928;-75
2023/06/29 09:36:15;;;;;;;;;;;;;;;;;;5004303;28;19913;-74
2023/06/29 09:39:04;;;;;;;;;;;;;;;;;;5005354;28;20423;-73
2023/06/29 09:41:50;;;;;;;;;;;;;;;;;;5004834;28;19917;-73
2023/06/29 09:44:37;;;;;;;;;;;;;;;;;;5000766;28;19918;-73
2023/06/29 09:47:23;;;;;;;;;;;;;;;;;;4998422;28;19917;-73
2023/06/29 09:50:10;;;;;;;;;;;;;;;;;;5005555;28;19918;-74
2023/06/29 09:52:56;;;;;;;;;;;;;;;;;;5002668;28;19925;-73
2023/06/29 09:55:43;;;;;;;;;;;;;;;;;;4994219;28;20293;-73
2023/06/29 09:58:29;;;;;;;;;;;;;;;;;;4989934;28;19925;-73
2023/06/29 10:01:16;;;;;;;;;;;;;;;;;;5004958;28;19920;-73
2023/06/29 10:04:04;;;;;;;;;;;;;;;;;;5005771;28;19919;-74
2023/06/29 10:06:51;;;;;;;;;;;;;;;;;;5013523;28;19928;-73
2023/06/29 10:09:38;;;;;;;;;;;;;;;;;;5003544;28;19932;-73
2023/06/29 10:12:24;;;;;;;;;;;;;;;;;;5004586;28;19917;-74
2023/06/29 10:15:11;;;;;;;;;;;;;;;;;;5003734;28;19923;-74
2023/06/29 10:17:57;;;;;;;;;;;;;;;;;;4995717;28;19913;-74
2023/06/29 10:20:44;;;;;;;;;;;;;;;;;;5001869;28;19921;-74
2023/06/29 10:23:30;;;;;;;;;;;;;;;;;;5004764;28;20577;-73
2023/06/29 10:26:17;;;;;;;;;;;;;;;;;;4997833;28;19924;-74
2023/06/29 10:29:03;;;;;;;;;;;;;;;;;;5002042;28;19926;-75
2023/06/29 10:31:50;;;;;;;;;;;;;;;;;;5004847;28;20660;-74
2023/06/29 10:34:36;;;;;;;;;;;;;;;;;;5001727;28;19921;-74
2023/06/29 10:37:23;;;;;;;;;;;;;;;;;;5001766;28;19913;-74
2023/06/29 10:40:09;;;;;;;;;;;;;;;;;;5000197;28;20381;-74
2023/06/29 10:42:56;;;;;;;;;;;;;;;;;;4999096;28;19924;-74
2023/06/29 10:45:42;;;;;;;;;;;;;;;;;;5004461;28;20424;-73
2023/06/29 10:48:29;;;;;;;;;;;;;;;;;;5001740;28;20451;-73
2023/06/29 10:51:15;;;;;;;;;;;;;;;;;;4999945;28;19918;-74
2023/06/29 10:54:02;;;;;;;;;;;;;;;;;;5004211;28;19921;-74
2023/06/29 10:56:48;;;;;;;;;;;;;;;;;;5000490;28;19920;-73
2023/06/29 10:59:36;;;;;;;;;;;;;;;;;;4990031;28;19956;-73
2023/06/29 11:02:23;;;;;;;;;;;;;;;;;;4994186;28;19918;-73
2023/06/29 11:05:09;;;;;;;;;;;;;;;;;;5004183;28;19925;-74
2023/06/29 11:07:56;;;;;;;;;;;;;;;;;;5003198;28;19921;-73
2023/06/29 11:10:42;;;;;;;;;;;;;;;;;;4995608;28;19921;-73
2023/06/29 11:13:29;;;;;;;;;;;;;;;;;;5002544;28;20405;-73
2023/06/29 11:16:15;;;;;;;;;;;;;;;;;;4994338;28;20373;-74
2023/06/29 11:19:02;;;;;;;;;;;;;;;;;;5001169;28;19918;-73
2023/06/29 11:21:49;;;;;;;;;;;;;;;;;;5002480;28;19996;-73
2023/06/29 11:24:36;;;;;;;;;;;;;;;;;;5003095;28;19922;-73
2023/06/29 11:27:22;;;;;;;;;;;;;;;;;;5000204;28;19936;-73
2023/06/29 11:30:10;;;;;;;;;;;;;;;;;;5001112;28;20400;-73
2023/06/29 11:32:56;;;;;;;;;;;;;;;;;;5003991;28;19918;-74
2023/06/29 11:35:43;;;;;;;;;;;;;;;;;;5002513;28;20435;-73
2023/06/29 11:38:30;;;;;;;;;;;;;;;;;;5001613;28;19924;-73
2023/06/29 11:41:16;;;;;;;;;;;;;;;;;;4997558;28;19928;-74
2023/06/29 11:44:03;;;;;;;;;;;;;;;;;;4994551;28;19924;-74
2023/06/29 11:46:49;;;;;;;;;;;;;;;;;;4996725;28;19926;-73
2023/06/29 11:49:36;;;;;;;;;;;;;;;;;;4992087;28;20317;-73
2023/06/29 11:52:23;;;;;;;;;;;;;;;;;;5001532;28;19921;-73
2023/06/29 11:55:09;;;;;;;;;;;;;;;;;;4991182;28;19921;-73
2023/06/29 11:57:56;;;;;;;;;;;;;;;;;;4998615;28;19923;-73
2023/06/29 12:00:42;;;;;;;;;;;;;;;;;;4995585;28;19922;-73
2023/06/29 12:03:28;;;;;;;;;;;;;;;;;;5006937;28;20390;-73
2023/06/29 12:06:15;;;;;;;;;;;;;;;;;;4995658;28;19921;-74
2023/06/29 12:09:02;;;;;;;;;;;;;;;;;;5005857;28;19921;-73
2023/06/29 12:11:48;;;;;;;;;;;;;;;;;;4999945;28;19918;-72
2023/06/29 12:14:35;;;;;;;;;;;;;;;;;;5000702;28;19917;-73
2023/06/29 12:17:21;;;;;;;;;;;;;;;;;;5001431;28;20336;-73
2023/06/29 12:20:08;;;;;;;;;;;;;;;;;;4996185;28;19953;-74
2023/06/29 12:22:54;;;;;;;;;;;;;;;;;;5001447;28;19925;-74
2023/06/29 12:25:41;;;;;;;;;;;;;;;;;;5004983;28;19921;-74
2023/06/29 12:28:28;;;;;;;;;;;;;;;;;;4990960;28;19930;-73
2023/06/29 12:31:14;;;;;;;;;;;;;;;;;;4983267;28;19925;-73
2023/06/29 12:34:01;;;;;;;;;;;;;;;;;;4978873;28;20042;-73
2023/06/29 12:36:47;;;;;;;;;;;;;;;;;;4986771;28;19926;-74
2023/06/29 12:39:34;;;;;;;;;;;;;;;;;;4976971;28;19929;-74
2023/06/29 12:42:20;;;;;;;;;;;;;;;;;;4980992;28;20369;-74
2023/06/29 12:45:06;;;;;;;;;;;;;;;;;;4984657;28;19929;-74
2023/06/29 12:47:56;;;;;;;;;;;;;;;;;;4986519;28;19927;-73
2023/06/29 12:50:42;;;;;;;;;;;;;;;;;;4984677;28;19921;-74
2023/06/29 12:53:29;;;;;;;;;;;;;;;;;;4983670;28;19913;-73
2023/06/29 12:56:15;;;;;;;;;;;;;;;;;;4985515;28;19940;-74
2023/06/29 12:59:02;;;;;;;;;;;;;;;;;;4981844;28;19922;-74
2023/06/29 13:01:48;;;;;;;;;;;;;;;;;;4983404;28;19925;-73
2023/06/29 13:04:38;;;;;;;;;;;;;;;;;;4980076;28;19918;-73
2023/06/29 13:07:24;;;;;;;;;;;;;;;;;;4983200;28;19918;-73
2023/06/29 13:10:11;;;;;;;;;;;;;;;;;;4985909;28;19941;-73
2023/06/29 13:12:59;;;;;;;;;;;;;;;;;;4976577;28;19928;-74
2023/06/29 13:15:45;;;;;;;;;;;;;;;;;;4985830;28;19922;-73
2023/06/29 13:18:32;;;;;;;;;;;;;;;;;;4987803;28;19925;-73
2023/06/29 13:21:18;;;;;;;;;;;;;;;;;;4985403;28;19926;-73
2023/06/29 13:24:05;;;;;;;;;;;;;;;;;;4983984;28;19918;-74
2023/06/29 13:26:51;;;;;;;;;;;;;;;;;;4989895;28;19960;-74
2023/06/29 13:29:38;;;;;;;;;;;;;;;;;;4997655;28;20404;-73
2023/06/29 13:32:24;;;;;;;;;;;;;;;;;;5003961;28;19913;-73
2023/06/29 13:35:11;;;;;;;;;;;;;;;;;;5001137;28;19922;-74
2023/06/29 13:37:57;;;;;;;;;;;;;;;;;;5002738;28;19921;-74
2023/06/29 13:40:44;;;;;;;;;;;;;;;;;;4999170;28;19914;-74
2023/06/29 13:43:30;;;;;;;;;;;;;;;;;;4998139;28;19924;-74
2023/06/29 13:46:17;;;;;;;;;;;;;;;;;;5000844;28;19940;-75
2023/06/29 13:49:04;;;;;;;;;;;;;;;;;;5003452;28;19932;-75
2023/06/29 13:51:50;;;;;;;;;;;;;;;;;;4998162;28;19949;-74
2023/06/29 13:54:37;;;;;;;;;;;;;;;;;;4985473;28;19917;-75
2023/06/29 13:57:23;;;;;;;;;;;;;;;;;;5002838;28;19935;-75
2023/06/29 14:00:09;;;;;;;;;;;;;;;;;;5001867;28;19925;-75
2023/06/29 14:02:56;;;;;;;;;;;;;;;;;;5004208;28;19913;-77
2023/06/29 14:05:43;;;;;;;;;;;;;;;;;;4992866;28;19920;-74
2023/06/29 14:08:29;;;;;;;;;;;;;;;;;;4998909;28;19926;-74
2023/06/29 14:11:16;;;;;;;;;;;;;;;;;;5005090;28;19929;-74
2023/06/29 14:14:02;;;;;;;;;;;;;;;;;;4989025;28;19955;-75
2023/06/29 14:16:49;;;;;;;;;;;;;;;;;;5003037;28;19918;-74
2023/06/29 14:19:35;;;;;;;;;;;;;;;;;;4991827;28;20345;-75
2023/06/29 14:22:22;;;;;;;;;;;;;;;;;;5003664;28;19940;-75
2023/06/29 14:25:08;;;;;;;;;;;;;;;;;;5004940;28;20293;-75
2023/06/29 14:27:55;;;;;;;;;;;;;;;;;;5004789;28;19929;-75
2023/06/29 14:30:41;;;;;;;;;;;;;;;;;;4992634;28;19917;-74
2023/06/29 14:33:28;;;;;;;;;;;;;;;;;;5002123;28;19913;-75
2023/06/29 14:36:15;;;;;;;;;;;;;;;;;;5002224;28;19918;-75
2023/06/29 14:39:01;;;;;;;;;;;;;;;;;;5004145;28;19924;-75
2023/06/29 14:41:47;;;;;;;;;;;;;;;;;;5002493;28;19929;-74
2023/06/29 14:44:34;;;;;;;;;;;;;;;;;;5002799;28;20294;-74
2023/06/29 14:47:20;;;;;;;;;;;;;;;;;;5003636;28;19918;-74
2023/06/29 14:50:07;;;;;;;;;;;;;;;;;;4989094;28;19925;-74
2023/06/29 14:52:53;;;;;;;;;;;;;;;;;;5000453;28;20423;-74
2023/06/29 14:55:40;;;;;;;;;;;;;;;;;;5000745;28;19922;-75
2023/06/29 14:58:26;;;;;;;;;;;;;;;;;;4993397;28;20365;-74
2023/06/29 15:01:13;;;;;;;;;;;;;;;;;;5003594;28;19922;-75
2023/06/29 15:04:00;;;;;;;;;;;;;;;;;;5003495;28;19914;-75
2023/06/29 15:06:52;;;;;;;;;;;;;;;;;;5013967;28;19928;-75
2023/06/29 15:09:39;;;;;;;;;;;;;;;;;;4993861;28;19948;-75
2023/06/29 15:12:25;;;;;;;;;;;;;;;;;;5002902;28;20464;-75
2023/06/29 15:15:12;;;;;;;;;;;;;;;;;;5003234;28;20403;-75
2023/06/29 15:17:59;;;;;;;;;;;;;;;;;;4996728;28;19920;-75
2023/06/29 15:20:47;;;;;;;;;;;;;;;;;;5011145;28;19949;-73
2023/06/29 15:23:33;;;;;;;;;;;;;;;;;;4999285;28;20373;-73
2023/06/29 15:26:22;;;;;;;;;;;;;;;;;;5003797;28;19922;-73
2023/06/29 15:29:09;;;;;;;;;;;;;;;;;;4994423;28;19941;-74
2023/06/29 15:31:55;;;;;;;;;;;;;;;;;;4994463;28;19922;-75
2023/06/29 15:34:42;;;;;;;;;;;;;;;;;;5000720;28;19917;-74
2023/06/29 15:37:28;;;;;;;;;;;;;;;;;;4999782;28;19931;-74
2023/06/29 15:40:15;;;;;;;;;;;;;;;;;;5001690;28;19921;-74
2023/06/29 15:43:01;;;;;;;;;;;;;;;;;;4999577;28;19945;-74
2023/06/29 15:45:48;;;;;;;;;;;;;;;;;;5002038;28;20293;-75
2023/06/29 15:48:34;;;;;;;;;;;;;;;;;;5009421;28;19925;-75
2023/06/29 15:51:21;;;;;;;;;;;;;;;;;;4999811;28;19960;-75
2023/06/29 15:54:07;;;;;;;;;;;;;;;;;;5000371;28;19918;-74
2023/06/29 15:56:54;;;;;;;;;;;;;;;;;;4997818;28;19921;-74
2023/06/29 15:59:40;;;;;;;;;;;;;;;;;;4999236;28;20270;-74
2023/06/29 16:02:27;;;;;;;;;;;;;;;;;;5003815;28;19918;-74
2023/06/29 16:05:13;;;;;;;;;;;;;;;;;;4998332;28;20308;-74
2023/06/29 16:08:00;;;;;;;;;;;;;;;;;;4994587;28;19922;-74
2023/06/29 16:10:46;;;;;;;;;;;;;;;;;;5002134;28;19914;-73
2023/06/29 16:13:33;;;;;;;;;;;;;;;;;;5001371;28;19917;-74
2023/06/29 16:16:20;;;;;;;;;;;;;;;;;;5001234;28;19917;-74
2023/06/29 16:19:06;;;;;;;;;;;;;;;;;;5000489;28;19917;-74
2023/06/29 16:21:53;;;;;;;;;;;;;;;;;;5001547;28;19917;-74
2023/06/29 16:24:39;;;;;;;;;;;;;;;;;;5002356;28;19925;-75
2023/06/29 16:27:26;;;;;;;;;;;;;;;;;;4994188;28;20409;-75
2023/06/29 16:30:12;;;;;;;;;;;;;;;;;;5001331;28;19925;-75
2023/06/29 16:32:59;;;;;;;;;;;;;;;;;;4999134;28;20386;-76
2023/06/29 16:35:45;;;;;;;;;;;;;;;;;;5002251;28;19922;-74
2023/06/29 16:38:34;;;;;;;;;;;;;;;;;;5002386;28;24180;-74
2023/06/29 16:41:20;;;;;;;;;;;;;;;;;;5007801;28;19917;-75
2023/06/29 16:44:07;;;;;;;;;;;;;;;;;;5001107;28;19945;-75
2023/06/29 16:46:53;;;;;;;;;;;;;;;;;;5003956;28;19922;-74
2023/06/29 16:49:40;;;;;;;;;;;;;;;;;;5005651;28;19921;-74
2023/06/29 16:52:26;;;;;;;;;;;;;;;;;;5003110;28;19918;-74
2023/06/29 16:55:13;;;;;;;;;;;;;;;;;;5003929;28;19917;-75
2023/06/29 16:57:59;;;;;;;;;;;;;;;;;;5005157;28;19933;-76
2023/06/29 17:00:46;;;;;;;;;;;;;;;;;;5000569;28;20572;-74
2023/06/29 17:03:32;;;;;;;;;;;;;;;;;;5002661;28;19918;-74
2023/06/29 17:06:19;;;;;;;;;;;;;;;;;;5006027;28;19929;-74
2023/06/29 17:09:05;;;;;;;;;;;;;;;;;;5006114;28;19930;-75
2023/06/29 17:11:52;;;;;;;;;;;;;;;;;;5006716;28;19940;-75
2023/06/29 17:14:38;;;;;;;;;;;;;;;;;;4988546;28;20358;-75
2023/06/29 17:17:24;;;;;;;;;;;;;;;;;;5004760;28;19924;-75
2023/06/29 17:20:12;;;;;;;;;;;;;;;;;;4996256;28;19918;-75
2023/06/29 17:22:58;;;;;;;;;;;;;;;;;;5006446;28;19924;-75
2023/06/29 17:25:45;;;;;;;;;;;;;;;;;;5002337;28;20561;-75
2023/06/29 17:28:32;;;;;;;;;;;;;;;;;;5001563;28;19934;-75
2023/06/29 17:31:18;;;;;;;;;;;;;;;;;;5004042;28;22871;-76
2023/06/29 17:34:05;;;;;;;;;;;;;;;;;;4996135;28;19925;-75
2023/06/29 17:36:51;;;;;;;;;;;;;;;;;;5004106;28;19917;-75
2023/06/29 17:39:38;;;;;;;;;;;;;;;;;;5003679;28;19923;-75
2023/06/29 17:42:24;;;;;;;;;;;;;;;;;;5005518;28;20336;-74
2023/06/29 17:45:11;;;;;;;;;;;;;;;;;;5012236;28;20403;-75
2023/06/29 17:47:57;;;;;;;;;;;;;;;;;;5003075;28;19921;-75
2023/06/29 17:50:44;;;;;;;;;;;;;;;;;;5006128;28;21095;-74
2023/06/29 17:53:30;;;;;;;;;;;;;;;;;;5003458;28;19928;-75
2023/06/29 17:56:17;;;;;;;;;;;;;;;;;;4990475;28;19921;-75
2023/06/29 17:59:03;;;;;;;;;;;;;;;;;;5004797;28;20388;-74
2023/06/29 18:01:50;;;;;;;;;;;;;;;;;;5005482;28;19936;-74
2023/06/29 18:04:36;;;;;;;;;;;;;;;;;;5005510;28;19964;-74
2023/06/29 18:07:23;;;;;;;;;;;;;;;;;;5002675;28;19948;-74
2023/06/29 18:10:09;;;;;;;;;;;;;;;;;;5006559;28;20300;-74
2023/06/29 18:12:56;;;;;;;;;;;;;;;;;;4993954;28;19929;-74
2023/06/29 18:15:43;;;;;;;;;;;;;;;;;;5003360;28;19918;-74
2023/06/29 18:18:29;;;;;;;;;;;;;;;;;;5003473;28;20344;-74
2023/06/29 18:21:16;;;;;;;;;;;;;;;;;;4991832;28;19921;-74
2023/06/29 18:24:05;;;;;;;;;;;;;;;;;;5004680;28;19917;-74
2023/06/29 18:26:52;;;;;;;;;;;;;;;;;;5002745;28;19926;-74
2023/06/29 18:29:38;;;;;;;;;;;;;;;;;;4999899;28;20763;-74
2023/06/29 18:32:25;;;;;;;;;;;;;;;;;;5003808;28;19929;-74
2023/06/29 18:35:11;;;;;;;;;;;;;;;;;;5001289;28;19918;-74
2023/06/29 18:37:58;;;;;;;;;;;;;;;;;;4998135;28;20374;-73
2023/06/29 18:40:45;;;;;;;;;;;;;;;;;;4988944;28;19918;-74
2023/06/29 18:43:32;;;;;;;;;;;;;;;;;;5000923;28;20694;-74
2023/06/29 18:46:18;;;;;;;;;;;;;;;;;;5000043;28;20380;-74
2023/06/29 18:49:08;;;;;;;;;;;;;;;;;;4999450;28;19930;-75
2023/06/29 18:51:54;;;;;;;;;;;;;;;;;;4997898;28;19917;-74
2023/06/29 18:54:43;;;;;;;;;;;;;;;;;;4994236;28;19925;-74
2023/06/29 18:57:29;;;;;;;;;;;;;;;;;;4999173;28;19921;-74